createdAt,value
2022-11-26T00:02:25.039Z,11.35
2022-11-26T00:04:52.704Z,9.95
2022-11-26T00:07:26.083Z,9.18
2022-11-26T00:09:54.268Z,10.68
2022-11-26T00:12:20.592Z,9.95
2022-11-26T00:14:47.451Z,9.40
2022-11-26T00:17:17.523Z,9.27
2022-11-26T00:19:45.399Z,8.02
2022-11-26T00:22:30.537Z,8.93
2022-11-26T00:24:57.781Z,8.77
2022-11-26T00:27:26.694Z,8.77
2022-11-26T00:29:54.197Z,8.57
2022-11-26T00:32:23.404Z,8.93
2022-11-26T00:34:50.100Z,13.38
2022-11-26T00:37:27.246Z,9.10
2022-11-26T00:39:54.743Z,9.77
2022-11-26T00:42:21.388Z,8.30
2022-11-26T00:44:47.883Z,9.15
2022-11-26T00:47:14.347Z,8.73
2022-11-26T00:49:40.747Z,8.95
2022-11-26T00:52:24.322Z,10.00
2022-11-26T00:54:50.818Z,9.93
2022-11-26T00:57:17.276Z,9.70
2022-11-26T00:59:44.229Z,9.10
2022-11-26T01:02:10.665Z,8.98
2022-11-26T01:04:37.507Z,9.40
2022-11-26T01:07:04.118Z,8.20
2022-11-26T01:09:30.891Z,9.15
2022-11-26T01:11:57.277Z,8.93
2022-11-26T01:14:24.071Z,7.70
2022-11-26T01:16:51.314Z,9.13
2022-11-26T01:19:17.756Z,8.13
2022-11-26T01:21:44.271Z,7.97
2022-11-26T01:24:10.669Z,8.23
2022-11-26T01:26:40.591Z,8.10
2022-11-26T01:29:07.383Z,9.23
2022-11-26T01:31:33.834Z,9.05
2022-11-26T01:34:01.048Z,8.57
2022-11-26T01:36:28.572Z,8.85
2022-11-26T01:38:58.288Z,8.07
2022-11-26T01:41:42.398Z,8.18
2022-11-26T01:44:17.345Z,8.40
2022-11-26T01:46:44.411Z,7.13
2022-11-26T01:49:21.928Z,6.80
2022-11-26T01:51:55.170Z,6.95
2022-11-26T01:54:21.719Z,7.25
2022-11-26T01:56:51.618Z,7.07
2022-11-26T01:59:32.921Z,6.57
2022-11-26T02:01:59.654Z,7.38
2022-11-26T02:04:33.209Z,7.05
2022-11-26T02:07:00.455Z,9.23
2022-11-26T02:09:28.601Z,8.57
2022-11-26T02:11:55.203Z,9.65
2022-11-26T02:14:28.660Z,7.80
2022-11-26T02:17:27.340Z,7.32
2022-11-26T02:20:20.184Z,6.72
2022-11-26T02:22:49.441Z,6.68
2022-11-26T02:25:37.129Z,7.65
2022-11-26T02:28:41.803Z,5.80
2022-11-26T02:31:29.400Z,7.22
2022-11-26T02:34:17.215Z,7.07
2022-11-26T02:36:53.451Z,6.90
2022-11-26T02:39:22.734Z,7.63
2022-11-26T02:41:52.773Z,6.40
2022-11-26T02:44:23.404Z,7.32
2022-11-26T02:46:56.294Z,7.53
2022-11-26T02:49:22.829Z,8.27
2022-11-26T02:51:53.707Z,8.15
2022-11-26T02:54:22.330Z,8.70
2022-11-26T02:56:50.494Z,8.50
2022-11-26T02:59:17.637Z,7.60
2022-11-26T03:02:00.838Z,6.78
2022-11-26T03:04:35.193Z,6.80
2022-11-26T03:07:05.842Z,7.78
2022-11-26T03:09:50.592Z,7.07
2022-11-26T03:12:17.003Z,6.85
2022-11-26T03:14:43.507Z,6.00
2022-11-26T03:17:10.052Z,5.40
2022-11-26T03:19:36.546Z,7.18
2022-11-26T03:22:03.279Z,6.28
2022-11-26T03:24:30.937Z,6.65
2022-11-26T03:26:57.320Z,6.53
2022-11-26T03:29:23.709Z,7.00
2022-11-26T03:31:53.740Z,6.25
2022-11-26T03:34:20.928Z,6.05
2022-11-26T03:36:47.315Z,7.05
2022-11-26T03:39:13.967Z,6.18
2022-11-26T03:41:44.043Z,6.75
2022-11-26T03:44:13.681Z,6.50
2022-11-26T03:46:40.321Z,6.50
2022-11-26T03:49:07.140Z,6.68
2022-11-26T03:51:33.560Z,6.82
2022-11-26T03:54:00.087Z,6.53
2022-11-26T03:56:26.501Z,6.68
2022-11-26T03:58:53.185Z,6.13
2022-11-26T04:01:19.658Z,5.78
2022-11-26T04:03:46.170Z,5.40
2022-11-26T04:06:12.831Z,6.55
2022-11-26T04:08:39.209Z,6.35
2022-11-26T04:11:05.747Z,5.97
2022-11-26T04:13:32.109Z,7.07
2022-11-26T04:15:58.466Z,5.88
2022-11-26T04:18:24.853Z,5.95
2022-11-26T04:20:53.204Z,6.43
2022-11-26T04:23:20.111Z,5.88
2022-11-26T04:25:47.150Z,6.10
2022-11-26T04:28:15.158Z,6.57
2022-11-26T04:30:42.740Z,6.10
2022-11-26T04:33:09.293Z,6.22
2022-11-26T04:35:36.086Z,6.47
2022-11-26T04:38:02.519Z,6.82
2022-11-26T04:40:29.117Z,6.05
2022-11-26T04:42:55.549Z,6.03
2022-11-26T04:45:22.052Z,6.00
2022-11-26T04:47:48.428Z,6.72
2022-11-26T04:50:14.798Z,6.35
2022-11-26T04:52:41.207Z,6.18
2022-11-26T04:55:07.984Z,5.97
2022-11-26T04:57:34.368Z,6.90
2022-11-26T05:00:00.973Z,6.60
2022-11-26T05:02:27.463Z,6.43
2022-11-26T05:04:54.449Z,6.00
2022-11-26T05:07:20.977Z,7.18
2022-11-26T05:09:47.380Z,6.22
2022-11-26T05:12:13.729Z,7.10
2022-11-26T05:14:40.380Z,6.63
2022-11-26T05:17:07.371Z,7.32
2022-11-26T05:19:34.231Z,7.25
2022-11-26T05:22:00.644Z,7.30
2022-11-26T05:24:27.238Z,8.02
2022-11-26T05:26:56.822Z,7.72
2022-11-26T05:29:23.658Z,7.63
2022-11-26T05:31:50.156Z,7.50
2022-11-26T05:34:16.689Z,7.72
2022-11-26T05:36:43.059Z,7.25
2022-11-26T05:39:09.485Z,8.60
2022-11-26T05:41:35.916Z,7.32
2022-11-26T05:44:02.304Z,7.80
2022-11-26T05:46:29.069Z,8.02
2022-11-26T05:48:55.458Z,9.98
2022-11-26T05:51:22.283Z,8.05
2022-11-26T05:53:48.734Z,8.45
2022-11-26T05:56:15.689Z,8.93
2022-11-26T05:58:43.055Z,8.10
2022-11-26T06:01:10.040Z,8.80
2022-11-26T06:03:37.791Z,8.55
2022-11-26T06:06:05.116Z,8.40
2022-11-26T06:08:31.747Z,8.82
2022-11-26T06:10:58.276Z,8.25
2022-11-26T06:13:24.904Z,8.45
2022-11-26T06:15:51.484Z,8.13
2022-11-26T06:18:18.176Z,7.95
2022-11-26T06:20:44.941Z,7.65
2022-11-26T06:23:11.852Z,7.50
2022-11-26T06:25:42.327Z,7.35
2022-11-26T06:28:08.895Z,7.10
2022-11-26T06:30:35.261Z,7.85
2022-11-26T06:33:01.798Z,9.07
2022-11-26T06:35:28.501Z,8.13
2022-11-26T06:37:54.897Z,8.18
2022-11-26T06:40:21.431Z,7.85
2022-11-26T06:42:52.838Z,7.90
2022-11-26T06:45:21.155Z,8.95
2022-11-26T06:47:49.266Z,8.27
2022-11-26T06:50:21.645Z,8.13
2022-11-26T06:52:55.266Z,8.95
2022-11-26T06:57:52.175Z,9.52
2022-11-26T07:00:19.082Z,9.20
2022-11-26T07:02:45.874Z,8.82
2022-11-26T07:05:12.454Z,9.00
2022-11-26T07:07:40.309Z,9.55
2022-11-26T07:10:08.060Z,8.45
2022-11-26T07:12:34.599Z,10.27
2022-11-26T07:15:01.147Z,9.18
2022-11-26T07:17:28.949Z,8.80
2022-11-26T07:19:55.362Z,9.25
2022-11-26T07:22:21.742Z,9.13
2022-11-26T07:24:48.355Z,9.55
2022-11-26T07:27:14.743Z,9.80
2022-11-26T07:29:41.136Z,10.35
2022-11-26T07:32:07.575Z,11.70
2022-11-26T07:34:34.017Z,12.75
2022-11-26T07:37:01.527Z,14.45
2022-11-26T07:39:27.896Z,14.73
2022-11-26T07:41:54.312Z,14.63
2022-11-26T07:44:20.760Z,11.90
2022-11-26T07:46:47.241Z,11.93
2022-11-26T07:49:13.652Z,13.07
2022-11-26T07:51:40.115Z,11.35
2022-11-26T07:54:07.960Z,14.65
2022-11-26T07:56:34.783Z,15.15
2022-11-26T07:59:02.205Z,12.40
2022-11-26T08:01:29.840Z,12.27
2022-11-26T08:03:57.492Z,11.38
2022-11-26T08:06:26.414Z,11.77
2022-11-26T08:08:53.470Z,12.07
2022-11-26T08:11:26.174Z,11.13
2022-11-26T08:13:58.266Z,11.77
2022-11-26T08:16:26.792Z,12.27
2022-11-26T08:18:57.131Z,11.07
2022-11-26T08:21:24.283Z,10.45
2022-11-26T08:23:52.455Z,11.38
2022-11-26T08:26:27.381Z,10.20
2022-11-26T08:28:54.496Z,11.65
2022-11-26T08:31:22.361Z,10.10
2022-11-26T08:33:49.048Z,10.05
2022-11-26T08:36:18.481Z,7.93
2022-11-26T08:38:46.728Z,8.25
2022-11-26T08:41:14.130Z,7.50
2022-11-26T08:46:27.880Z,6.25
2022-11-26T08:48:57.846Z,6.05
2022-11-26T08:51:25.234Z,7.13
2022-11-26T08:53:52.086Z,6.32
2022-11-26T08:56:18.946Z,7.47
2022-11-26T08:58:46.571Z,8.43
2022-11-26T09:01:24.519Z,7.30
2022-11-26T09:03:52.581Z,7.43
2022-11-26T09:06:20.704Z,8.32
2022-11-26T09:09:06.300Z,6.75
2022-11-26T09:11:35.178Z,6.07
2022-11-26T09:14:02.576Z,6.15
2022-11-26T09:16:29.176Z,6.15
2022-11-26T09:18:56.464Z,5.57
2022-11-26T09:21:23.115Z,6.78
2022-11-26T09:23:49.737Z,6.50
2022-11-26T09:26:16.649Z,8.20
2022-11-26T09:28:43.045Z,6.82
2022-11-26T09:31:09.540Z,9.55
2022-11-26T09:33:36.036Z,9.70
2022-11-26T09:36:07.346Z,10.15
2022-11-26T09:38:34.931Z,8.85
2022-11-26T09:41:13.727Z,7.20
2022-11-26T09:44:01.748Z,8.20
2022-11-26T09:46:51.046Z,7.38
2022-11-26T09:49:31.466Z,6.13
2022-11-26T09:51:59.569Z,6.32
2022-11-26T09:54:29.680Z,6.88
2022-11-26T09:57:06.234Z,6.22
2022-11-26T09:59:34.880Z,6.93
2022-11-26T10:02:01.413Z,6.38
2022-11-26T10:04:33.240Z,6.57
2022-11-26T10:07:20.893Z,6.57
2022-11-26T10:10:26.303Z,6.45
2022-11-26T10:13:20.399Z,6.07
2022-11-26T10:15:56.381Z,10.00
2022-11-26T10:18:37.742Z,6.07
2022-11-26T10:21:32.476Z,5.53
2022-11-26T10:24:16.050Z,6.07
2022-11-26T10:26:43.113Z,6.20
2022-11-26T10:29:18.382Z,8.30
2022-11-26T10:31:47.211Z,5.78
2022-11-26T10:34:18.737Z,8.18
2022-11-26T10:36:47.197Z,7.85
2022-11-26T10:39:16.770Z,6.68
2022-11-26T10:41:43.916Z,6.15
2022-11-26T10:44:32.548Z,5.90
2022-11-26T10:47:00.247Z,5.60
2022-11-26T10:49:29.627Z,6.20
2022-11-26T10:52:01.809Z,6.93
2022-11-26T10:54:33.595Z,6.93
2022-11-26T10:57:08.966Z,5.97
2022-11-26T10:59:49.388Z,6.18
2022-11-26T11:02:41.050Z,6.22
2022-11-26T11:05:09.610Z,6.03
2022-11-26T11:07:38.702Z,5.80
2022-11-26T11:10:08.147Z,6.60
2022-11-26T11:12:39.316Z,6.18
2022-11-26T11:15:21.139Z,6.53
2022-11-26T11:17:54.791Z,8.30
2022-11-26T11:23:11.616Z,6.72
2022-11-26T11:25:45.555Z,7.10
2022-11-26T11:28:12.568Z,7.07
2022-11-26T11:30:41.353Z,7.22
2022-11-26T11:33:24.423Z,7.47
2022-11-26T11:36:06.271Z,6.30
2022-11-26T11:38:47.658Z,6.93
2022-11-26T11:41:22.393Z,6.70
2022-11-26T11:43:49.140Z,6.15
2022-11-26T11:46:34.342Z,6.88
2022-11-26T11:49:32.010Z,5.70
2022-11-26T11:52:04.603Z,6.72
2022-11-26T11:54:56.941Z,7.05
2022-11-26T11:57:48.506Z,7.78
2022-11-26T12:00:21.646Z,8.13
2022-11-26T12:02:59.725Z,6.75
2022-11-26T12:05:35.459Z,6.80
2022-11-26T12:08:15.186Z,7.70
2022-11-26T12:10:54.686Z,7.38
2022-11-26T12:13:24.408Z,8.45
2022-11-26T12:15:58.119Z,8.07
2022-11-26T12:20:56.325Z,7.43
2022-11-26T12:23:38.051Z,7.38
2022-11-26T12:26:23.266Z,7.03
2022-11-26T12:29:15.880Z,6.15
2022-11-26T12:31:48.835Z,8.65
2022-11-26T12:34:34.852Z,8.35
2022-11-26T12:37:11.059Z,7.35
2022-11-26T12:39:53.828Z,5.53
2022-11-26T12:42:45.228Z,7.72
2022-11-26T12:45:21.852Z,6.88
2022-11-26T12:47:57.898Z,6.65
2022-11-26T12:50:39.487Z,6.65
2022-11-26T12:53:24.665Z,6.28
2022-11-26T12:56:08.347Z,6.75
2022-11-26T12:58:57.939Z,6.38
2022-11-26T13:01:29.094Z,7.03
2022-11-26T13:04:21.603Z,6.07
2022-11-26T13:07:16.686Z,6.25
2022-11-26T13:09:55.082Z,7.50
2022-11-26T13:12:59.197Z,5.97
2022-11-26T13:15:39.345Z,6.53
2022-11-26T13:18:29.780Z,7.25
2022-11-26T13:21:14.034Z,12.00
2022-11-26T13:23:59.310Z,7.80
2022-11-26T13:26:59.474Z,7.43
2022-11-26T13:29:55.454Z,7.10
2022-11-26T13:33:02.326Z,7.25
2022-11-26T13:36:11.263Z,6.75
2022-11-26T13:38:46.775Z,8.40
2022-11-26T13:41:59.785Z,8.07
2022-11-26T13:44:49.380Z,8.70
2022-11-26T13:47:27.330Z,9.43
2022-11-26T13:50:01.118Z,6.95
2022-11-26T13:52:43.898Z,7.97
2022-11-26T13:55:19.151Z,8.20
2022-11-26T13:57:49.101Z,6.30
2022-11-26T14:00:31.373Z,6.28
2022-11-26T14:02:59.527Z,6.63
2022-11-26T14:05:50.616Z,6.85
2022-11-26T14:08:32.245Z,7.32
2022-11-26T14:10:58.612Z,6.28
2022-11-26T14:13:25.049Z,6.68
2022-11-26T14:15:51.367Z,8.18
2022-11-26T14:18:38.166Z,7.20
2022-11-26T14:21:07.533Z,7.47
2022-11-26T14:23:46.581Z,7.47
2022-11-26T14:26:19.025Z,6.20
2022-11-26T14:28:45.691Z,6.20
2022-11-26T14:31:24.516Z,7.07
2022-11-26T14:33:54.562Z,7.05
2022-11-26T14:36:24.364Z,6.22
2022-11-26T14:39:16.275Z,5.72
2022-11-26T14:41:42.698Z,5.95
2022-11-26T14:44:15.371Z,6.50
2022-11-26T14:46:47.651Z,6.93
2022-11-26T14:49:41.123Z,7.75
2022-11-26T14:52:20.531Z,7.20
2022-11-26T14:54:50.471Z,7.85
2022-11-26T14:57:22.436Z,8.18
2022-11-26T14:59:57.467Z,7.55
2022-11-26T15:02:25.653Z,8.15
2022-11-26T15:05:04.682Z,7.82
2022-11-26T15:07:31.619Z,44.58
2022-11-26T15:10:18.676Z,12.90
2022-11-26T15:12:47.850Z,9.25
2022-11-26T15:15:22.948Z,91.45
2022-11-26T15:17:57.438Z,58.75
2022-11-26T15:20:25.077Z,21.10
2022-11-26T15:23:00.549Z,15.63
2022-11-26T15:25:29.719Z,11.95
2022-11-26T15:28:04.642Z,12.13
2022-11-26T15:30:36.859Z,10.57
2022-11-26T15:33:12.382Z,8.20
2022-11-26T15:35:43.730Z,8.30
2022-11-26T15:38:16.619Z,7.65
2022-11-26T15:40:51.457Z,6.85
2022-11-26T15:43:31.536Z,6.07
2022-11-26T15:46:02.995Z,6.20
2022-11-26T15:48:57.987Z,7.75
2022-11-26T15:51:24.408Z,7.72
2022-11-26T15:53:51.176Z,7.32
2022-11-26T15:56:32.168Z,8.90
2022-11-26T15:59:02.949Z,8.27
2022-11-26T16:01:32.616Z,6.50
2022-11-26T16:04:04.548Z,7.20
2022-11-26T16:06:41.195Z,8.40
2022-11-26T16:09:13.659Z,8.77
2022-11-26T16:12:00.468Z,8.73
2022-11-26T16:14:26.851Z,9.63
2022-11-26T16:16:53.755Z,13.18
2022-11-26T16:19:23.800Z,7.95
2022-11-26T16:21:52.118Z,8.00
2022-11-26T16:24:35.299Z,7.57
2022-11-26T16:27:20.573Z,6.80
2022-11-26T16:29:47.452Z,8.85
2022-11-26T16:32:16.513Z,8.95
2022-11-26T16:34:44.615Z,9.45
2022-11-26T16:37:29.201Z,18.00
2022-11-26T16:40:09.029Z,9.20
2022-11-26T16:42:35.572Z,8.65
2022-11-26T16:45:04.307Z,10.35
2022-11-26T16:47:42.224Z,8.60
2022-11-26T16:50:22.667Z,8.13
2022-11-26T16:52:49.463Z,9.93
2022-11-26T16:55:18.546Z,10.63
2022-11-26T16:57:48.228Z,8.90
2022-11-26T17:00:18.541Z,10.00
2022-11-26T17:02:45.841Z,8.25
2022-11-26T17:05:13.131Z,9.18
2022-11-26T17:07:55.262Z,8.75
2022-11-26T17:10:28.715Z,7.55
2022-11-26T17:12:55.940Z,9.45
2022-11-26T17:15:22.557Z,9.88
2022-11-26T17:17:50.604Z,7.68
2022-11-26T17:20:21.098Z,8.40
2022-11-26T17:22:47.664Z,9.65
2022-11-26T17:25:14.817Z,8.90
2022-11-26T17:27:42.784Z,6.15
2022-11-26T17:30:27.518Z,7.80
2022-11-26T17:32:54.173Z,11.27
2022-11-26T17:35:20.714Z,11.45
2022-11-26T17:37:47.280Z,12.80
2022-11-26T17:40:19.527Z,10.75
2022-11-26T17:42:46.947Z,10.20
2022-11-26T17:45:14.633Z,10.85
2022-11-26T17:47:41.564Z,11.32
2022-11-26T17:50:23.844Z,11.48
2022-11-26T17:52:50.896Z,11.82
2022-11-26T17:55:18.321Z,11.70
2022-11-26T17:57:45.019Z,10.55
2022-11-26T18:00:15.680Z,9.52
2022-11-26T18:02:43.650Z,10.00
2022-11-26T18:05:11.072Z,9.77
2022-11-26T18:07:37.980Z,9.57
2022-11-26T18:10:06.775Z,10.15
2022-11-26T18:12:33.708Z,9.68
2022-11-26T18:15:02.082Z,10.63
2022-11-26T18:17:28.467Z,11.15
2022-11-26T18:19:54.956Z,11.32
2022-11-26T18:22:23.493Z,13.18
2022-11-26T18:24:56.934Z,12.10
2022-11-26T18:27:27.509Z,12.20
2022-11-26T18:29:54.178Z,11.85
2022-11-26T18:32:20.740Z,11.05
2022-11-26T18:34:50.276Z,12.30
2022-11-26T18:37:17.245Z,13.57
2022-11-26T18:39:43.674Z,12.93
2022-11-26T18:44:58.038Z,17.10
2022-11-26T18:47:24.590Z,14.10
2022-11-26T18:49:51.120Z,11.00
2022-11-26T18:52:18.741Z,12.48
2022-11-26T18:54:45.216Z,18.92
2022-11-26T18:57:11.625Z,24.67
2022-11-26T18:59:38.522Z,21.70
2022-11-26T19:02:05.198Z,18.15
2022-11-26T19:04:31.787Z,16.77
2022-11-26T19:06:58.230Z,18.77
2022-11-26T19:09:24.922Z,20.75
2022-11-26T19:11:54.359Z,20.35
2022-11-26T19:14:21.007Z,35.83
2022-11-26T19:16:50.349Z,27.00
2022-11-26T19:19:19.005Z,20.05
2022-11-26T19:21:45.542Z,23.10
2022-11-26T19:24:12.545Z,20.30
2022-11-26T19:26:41.159Z,18.85
2022-11-26T19:29:08.840Z,20.83
2022-11-26T19:31:38.984Z,21.40
2022-11-26T19:34:08.883Z,19.33
2022-11-26T19:36:36.317Z,18.13
2022-11-26T19:39:04.289Z,16.13
2022-11-26T19:41:31.046Z,15.88
2022-11-26T19:44:00.246Z,12.30
2022-11-26T19:46:27.011Z,11.07
2022-11-26T19:48:54.470Z,11.95
2022-11-26T19:51:22.654Z,12.30
2022-11-26T19:53:50.888Z,13.50
2022-11-26T19:56:20.804Z,13.95
2022-11-26T19:58:47.638Z,14.05
2022-11-26T20:01:16.436Z,15.20
2022-11-26T20:03:43.426Z,14.18
2022-11-26T20:06:21.765Z,14.18
2022-11-26T20:08:48.944Z,12.88
2022-11-26T20:11:16.716Z,11.98
2022-11-26T20:13:44.594Z,12.90
2022-11-26T20:16:17.342Z,12.02
2022-11-26T20:18:45.153Z,12.30
2022-11-26T20:21:15.327Z,12.63
2022-11-26T20:23:41.942Z,12.63
2022-11-26T20:26:29.106Z,12.80
2022-11-26T20:28:57.225Z,12.40
2022-11-26T20:31:24.267Z,12.13
2022-11-26T20:33:52.897Z,12.77
2022-11-26T20:36:20.930Z,13.70
2022-11-26T20:38:50.992Z,11.93
2022-11-26T20:41:17.502Z,13.02
2022-11-26T20:43:44.507Z,12.95
2022-11-26T20:46:14.108Z,12.13
2022-11-26T20:48:42.383Z,12.07
2022-11-26T20:51:11.775Z,12.45
2022-11-26T20:53:39.147Z,14.02
2022-11-26T20:56:06.344Z,14.02
2022-11-26T20:58:34.087Z,13.70
2022-11-26T21:01:01.562Z,13.00
2022-11-26T21:03:29.315Z,15.18
2022-11-26T21:05:55.848Z,13.85
2022-11-26T21:08:23.181Z,14.88
2022-11-26T21:10:50.597Z,15.38
2022-11-26T21:13:18.798Z,13.07
2022-11-26T21:15:48.720Z,11.95
2022-11-26T21:18:15.515Z,11.68
2022-11-26T21:20:43.269Z,11.27
2022-11-26T21:23:11.698Z,11.80
2022-11-26T21:25:39.870Z,11.07
2022-11-26T21:28:07.116Z,11.27
2022-11-26T21:30:35.088Z,11.98
2022-11-26T21:33:07.487Z,12.32
2022-11-26T21:35:35.858Z,12.05
2022-11-26T21:38:02.341Z,12.38
2022-11-26T21:40:29.107Z,14.00
2022-11-26T21:42:55.512Z,13.50
2022-11-26T21:45:22.547Z,13.48
2022-11-26T21:47:52.784Z,12.43
2022-11-26T21:50:19.767Z,12.23
2022-11-26T21:52:46.525Z,13.93
2022-11-26T21:55:12.941Z,15.38
2022-11-26T21:57:39.365Z,15.52
2022-11-26T22:00:06.470Z,14.20
2022-11-26T22:02:32.939Z,15.05
2022-11-26T22:04:59.412Z,13.70
2022-11-26T22:07:26.017Z,15.82
2022-11-26T22:09:52.565Z,17.10
2022-11-26T22:12:18.977Z,13.65
2022-11-26T22:14:45.365Z,14.32
2022-11-26T22:17:11.774Z,15.23
2022-11-26T22:19:38.556Z,13.60
2022-11-26T22:22:05.102Z,13.63
2022-11-26T22:24:31.504Z,12.90
2022-11-26T22:26:59.278Z,13.15
2022-11-26T22:29:25.772Z,13.82
2022-11-26T22:31:52.939Z,13.88
2022-11-26T22:34:22.000Z,13.07
2022-11-26T22:36:48.903Z,13.93
2022-11-26T22:39:18.517Z,13.65
2022-11-26T22:41:46.367Z,18.98
2022-11-26T22:44:14.153Z,22.40
2022-11-26T22:46:40.583Z,23.23
2022-11-26T22:49:07.827Z,23.30
2022-11-26T22:51:35.454Z,22.88
2022-11-26T22:54:04.944Z,18.30
2022-11-26T22:56:33.386Z,17.63
2022-11-26T22:59:01.105Z,17.83
2022-11-26T23:01:30.996Z,18.38
2022-11-26T23:03:59.739Z,13.80
2022-11-26T23:06:28.241Z,12.00
2022-11-26T23:08:55.959Z,11.13
2022-11-26T23:11:28.068Z,10.90
2022-11-26T23:13:54.980Z,11.30
2022-11-26T23:16:23.972Z,10.75
2022-11-26T23:18:51.794Z,12.07
2022-11-26T23:21:27.416Z,11.93
2022-11-26T23:23:54.274Z,10.10
2022-11-26T23:26:27.119Z,10.68
2022-11-26T23:28:58.291Z,11.10
2022-11-26T23:31:28.508Z,11.52
2022-11-26T23:33:55.418Z,10.73
2022-11-26T23:36:22.555Z,10.88
2022-11-26T23:38:49.234Z,11.93
2022-11-26T23:41:16.307Z,11.90
2022-11-26T23:43:42.826Z,11.30
2022-11-26T23:46:14.956Z,10.82
2022-11-26T23:48:42.032Z,11.38
2022-11-26T23:51:13.735Z,11.20
2022-11-26T23:53:42.184Z,12.23
2022-11-26T23:56:13.679Z,13.95
2022-11-26T23:58:42.998Z,13.98
